Time;durP1;ratioP1;P1;durP2;ratioP2;P2;SDS_P1;SDS_P2;PMS_P1;PMS_P2;Temp;Humidity;BMP_temperature;BMP_pressure;BME280_temperature;BME280_humidity;BME280_pressure;Samples;Min_cycle;Max_cycle;Signal;HPM_P1;HPM_P2
2021/06/20 00:00:34;;;;;;;10.20;3.85;;;;;;;15.89;100.00;94916.78;5088391;28;20043;-71
2021/06/20 00:03:01;;;;;;;15.75;4.03;;;;;;;15.97;100.00;94924.13;5083926;28;20056;-70
2021/06/20 00:05:34;;;;;;;4.25;3.33;;;;;;;15.94;100.00;94919.44;5088259;28;20040;-71
2021/06/20 00:08:09;;;;;;;5.57;3.08;;;;;;;15.98;100.00;94920.47;5089732;28;20683;-71
2021/06/20 00:10:37;;;;;;;9.27;3.63;;;;;;;16.01;100.00;94933.09;5086761;28;20508;-70
2021/06/20 00:13:05;;;;;;;7.38;3.33;;;;;;;15.97;100.00;94914.44;5085180;28;20051;-70
2021/06/20 00:15:34;;;;;;;8.60;3.72;;;;;;;16.06;100.00;94933.06;5085085;28;20043;-70
2021/06/20 00:18:02;;;;;;;8.57;3.63;;;;;;;15.93;100.00;94912.59;5084253;28;20416;-71
2021/06/20 00:20:33;;;;;;;9.40;3.70;;;;;;;15.90;100.00;94913.09;5085188;28;20520;-70
2021/06/20 00:23:00;;;;;;;13.57;4.25;;;;;;;15.60;100.00;94914.63;5085164;28;20108;-71
2021/06/20 00:25:27;;;;;;;25.67;3.72;;;;;;;15.60;100.00;94904.13;5083927;28;20044;-71
2021/06/20 00:27:55;;;;;;;8.57;3.70;;;;;;;15.57;100.00;94909.88;5086765;28;20044;-70
2021/06/20 00:30:25;;;;;;;8.55;3.05;;;;;;;15.59;100.00;94907.78;5090629;28;20050;-70
2021/06/20 00:32:53;;;;;;;5.72;2.90;;;;;;;15.65;100.00;94917.25;5092141;28;20421;-71
2021/06/20 00:35:20;;;;;;;14.45;3.35;;;;;;;15.70;100.00;94914.66;5092998;28;20050;-70
2021/06/20 00:37:48;;;;;;;4.47;3.05;;;;;;;15.76;100.00;94908.38;5090820;28;20139;-70
2021/06/20 00:40:17;;;;;;;6.40;3.45;;;;;;;15.70;100.00;94913.84;5092534;28;20044;-70
2021/06/20 00:42:44;;;;;;;7.65;3.97;;;;;;;15.66;100.00;94908.31;5091889;28;20496;-70
2021/06/20 00:45:15;;;;;;;16.90;5.18;;;;;;;15.60;100.00;94907.53;5088516;28;20040;-70
2021/06/20 00:47:43;;;;;;;12.63;5.88;;;;;;;15.55;100.00;94912.00;5088937;28;20066;-70
2021/06/20 00:50:12;;;;;;;8.70;5.82;;;;;;;15.50;100.00;94910.13;5088836;28;20062;-70
2021/06/20 00:52:40;;;;;;;16.45;6.15;;;;;;;15.55;100.00;94912.00;5088916;28;20119;-69
2021/06/20 00:55:08;;;;;;;10.02;6.13;;;;;;;15.57;100.00;94909.88;5091042;28;20502;-69
2021/06/20 00:57:35;;;;;;;10.90;7.85;;;;;;;15.61;100.00;94910.94;5088038;28;20854;-69
2021/06/20 01:00:08;;;;;;;15.52;7.82;;;;;;;15.44;100.00;94909.34;5088982;28;20078;-69
2021/06/20 01:02:35;;;;;;;10.88;8.25;;;;;;;15.32;100.00;94908.78;5087498;28;20054;-69
2021/06/20 01:05:08;;;;;;;13.65;6.80;;;;;;;15.36;100.00;94909.84;5090402;28;20043;-70
2021/06/20 01:07:36;;;;;;;13.70;7.93;;;;;;;15.23;100.00;94905.88;5091100;28;20040;-70
2021/06/20 01:10:06;;;;;;;17.10;9.40;;;;;;;15.18;100.00;94892.75;5091799;28;20053;-69
2021/06/20 01:12:33;;;;;;;11.18;8.63;;;;;;;15.35;100.00;94903.03;5090373;28;20460;-69
2021/06/20 01:15:00;;;;;;;19.30;9.40;;;;;;;15.40;100.00;94894.38;5087692;28;20051;-69
2021/06/20 01:17:28;;;;;;;21.02;10.02;;;;;;;15.43;100.00;94899.91;5087062;28;20051;-68
2021/06/20 01:19:55;;;;;;;12.50;8.07;;;;;;;15.52;100.00;94896.75;5086319;28;20481;-69
2021/06/20 01:22:31;;;;;;;11.82;8.25;;;;;;;15.43;100.00;94875.47;5088228;28;20051;-69
2021/06/20 01:25:08;;;;;;;9.38;7.45;;;;;;;15.56;100.00;94897.81;5088384;28;20445;-69
2021/06/20 01:27:38;;;;;;;12.32;8.68;;;;;;;15.54;100.00;94894.66;5091451;28;20114;-69
2021/06/20 01:30:14;;;;;;;18.80;8.18;;;;;;;15.43;100.00;94899.09;5091742;28;20043;-69
2021/06/20 01:32:41;;;;;;;11.18;7.80;;;;;;;15.38;100.00;94897.25;5092602;28;20410;-69
2021/06/20 01:35:11;;;;;;;14.35;7.30;;;;;;;15.25;100.00;94903.78;5090919;28;20040;-70
2021/06/20 01:37:39;;;;;;;10.77;8.55;;;;;;;15.26;100.00;94904.56;5091149;28;20036;-70
2021/06/20 01:40:08;;;;;;;13.07;7.30;;;;;;;15.29;100.00;94904.06;5092051;28;20382;-71
2021/06/20 01:42:35;;;;;;;21.60;7.30;;;;;;;15.31;100.00;94907.22;5090495;28;20044;-70
2021/06/20 01:45:05;;;;;;;10.57;6.45;;;;;;;15.32;100.00;94916.66;5088296;28;20406;-71
2021/06/20 01:47:32;;;;;;;7.88;6.50;;;;;;;15.32;100.00;94913.25;5091405;28;20438;-71
2021/06/20 01:50:01;;;;;;;12.98;6.47;;;;;;;15.15;100.00;94888.00;5089316;28;20036;-71
2021/06/20 01:52:28;;;;;;;40.42;8.10;;;;;;;15.30;100.00;94905.63;5087971;28;20421;-71
2021/06/20 01:54:56;;;;;;;11.55;7.13;;;;;;;15.16;100.00;94904.53;5086977;28;20036;-71
2021/06/20 01:57:34;;;;;;;15.32;8.10;;;;;;;14.99;100.00;94905.53;5086728;28;20105;-71
2021/06/20 02:00:04;;;;;;;9.93;7.55;;;;;;;14.94;100.00;94912.59;5088078;28;20040;-71
2021/06/20 02:02:39;;;;;;;21.55;7.55;;;;;;;14.99;100.00;94910.75;5090732;28;20495;-71
2021/06/20 02:05:07;;;;;;;9.23;7.43;;;;;;;14.99;100.00;94910.75;5092346;28;20044;-71
2021/06/20 02:07:36;;;;;;;16.17;6.80;;;;;;;15.01;100.00;94919.16;5090627;28;20036;-71
2021/06/20 02:10:05;;;;;;;13.20;6.15;;;;;;;14.98;100.00;94913.63;5089068;28;20551;-72
2021/06/20 02:12:32;;;;;;;14.13;6.93;;;;;;;14.70;100.00;94876.31;5087639;28;20655;-70
2021/06/20 02:14:59;;;;;;;8.05;6.15;;;;;;;14.95;100.00;94908.94;5085690;28;20036;-71
2021/06/20 02:17:31;;;;;;;9.18;7.00;;;;;;;14.95;100.00;94909.72;5090415;28;20036;-71
2021/06/20 02:20:03;;;;;;;10.68;7.20;;;;;;;14.84;100.00;94881.88;5086253;28;20043;-71
2021/06/20 02:22:31;;;;;;;14.88;7.13;;;;;;;14.91;100.00;94898.94;5087259;28;20036;-71
2021/06/20 02:24:58;;;;;;;15.07;7.35;;;;;;;14.91;100.00;94903.41;5091659;28;20066;-71
2021/06/20 02:27:25;;;;;;;12.68;6.93;;;;;;;14.89;100.00;94910.72;5086804;28;20044;-71
2021/06/20 02:29:55;;;;;;;16.45;6.90;;;;;;;14.93;100.00;94906.56;5086885;28;20509;-71
2021/06/20 02:32:23;;;;;;;12.02;5.93;;;;;;;14.97;100.00;94902.38;5086959;28;20044;-71
2021/06/20 02:34:50;;;;;;;11.00;6.25;;;;;;;14.95;100.00;94907.09;5090189;28;20032;-71
2021/06/20 02:37:18;;;;;;;15.15;6.90;;;;;;;14.57;100.00;94914.22;5090079;28;20052;-71
2021/06/20 02:39:45;;;;;;;12.30;6.20;;;;;;;14.64;100.00;94909.56;5090838;28;20035;-71
2021/06/20 02:42:12;;;;;;;13.45;7.00;;;;;;;14.56;100.00;94920.50;5090050;28;20413;-71
2021/06/20 02:44:40;;;;;;;18.23;6.63;;;;;;;14.50;100.00;94926.75;5086367;28;20109;-70
2021/06/20 02:47:07;;;;;;;21.35;7.50;;;;;;;14.50;100.00;94930.16;5085328;28;20141;-71
2021/06/20 02:49:36;;;;;;;15.25;6.53;;;;;;;14.47;100.00;94929.88;5088382;28;20066;-70
2021/06/20 02:52:05;;;;;;;14.18;6.70;;;;;;;14.55;100.00;94929.41;5086798;28;20044;-70
2021/06/20 02:54:32;;;;;;;21.02;7.80;;;;;;;14.51;100.00;94921.25;5085963;28;20047;-71
2021/06/20 02:56:59;;;;;;;18.83;8.88;;;;;;;14.23;100.00;94925.00;5087448;28;20044;-71
2021/06/20 02:59:27;;;;;;;14.15;7.70;;;;;;;14.14;100.00;94926.50;5092908;28;20477;-71
2021/06/20 03:01:54;;;;;;;13.32;6.82;;;;;;;14.19;100.00;94908.22;5089628;28;20162;-71
2021/06/20 03:04:21;;;;;;;10.57;6.93;;;;;;;14.21;100.00;94911.38;5089343;28;20561;-71
2021/06/20 03:06:48;;;;;;;15.80;7.82;;;;;;;14.17;100.00;94905.06;5087053;28;20044;-71
2021/06/20 03:09:14;;;;;;;11.70;8.25;;;;;;;14.24;100.00;94908.25;5087813;28;20044;-71
2021/06/20 03:11:42;;;;;;;13.70;8.35;;;;;;;14.31;100.00;94915.88;5089107;28;20497;-71
2021/06/20 03:14:14;;;;;;;12.93;8.48;;;;;;;14.27;100.00;94920.81;5089413;28;20071;-71
2021/06/20 03:16:42;;;;;;;11.32;8.65;;;;;;;13.92;100.00;94914.28;5086629;28;20100;-71
2021/06/20 03:19:09;;;;;;;11.35;6.97;;;;;;;14.05;100.00;94913.06;5084889;28;20046;-71
2021/06/20 03:21:36;;;;;;;16.77;6.80;;;;;;;14.13;100.00;94917.06;5087406;28;20043;-71
2021/06/20 03:24:04;;;;;;;12.40;6.85;;;;;;;14.17;100.00;94909.47;5091042;28;20439;-70
2021/06/20 03:26:31;;;;;;;13.05;6.70;;;;;;;14.05;100.00;94917.53;5086940;28;20059;-70
2021/06/20 03:28:58;;;;;;;8.55;6.50;;;;;;;14.01;100.00;94911.19;5084788;28;20093;-70
2021/06/20 03:31:26;;;;;;;9.38;7.03;;;;;;;14.12;100.00;94907.63;5088330;28;20054;-70
2021/06/20 03:33:57;;;;;;;14.60;7.35;;;;;;;14.21;100.00;94911.38;5086634;28;20036;-70
2021/06/20 03:36:25;;;;;;;10.20;6.05;;;;;;;14.13;100.00;94888.25;5088620;28;20043;-70
2021/06/20 03:38:52;;;;;;;15.25;6.90;;;;;;;14.14;100.00;94905.56;5088896;28;20039;-70
2021/06/20 03:41:19;;;;;;;8.70;6.70;;;;;;;14.20;100.00;94899.28;5085700;28;20039;-70
2021/06/20 03:43:46;;;;;;;18.25;6.93;;;;;;;14.10;100.00;94889.53;5085618;28;20040;-70
2021/06/20 03:46:13;;;;;;;11.55;6.43;;;;;;;14.23;100.00;94904.03;5087152;28;20036;-70
2021/06/20 03:48:40;;;;;;;12.93;6.88;;;;;;;14.06;100.00;94903.38;5092795;28;20119;-70
2021/06/20 03:51:07;;;;;;;17.98;7.25;;;;;;;14.24;100.00;94910.88;5086522;28;20050;-70
2021/06/20 03:53:34;;;;;;;17.77;8.05;;;;;;;14.27;100.00;94910.34;5085737;28;20483;-70
2021/06/20 03:56:00;;;;;;;45.15;11.57;;;;;;;14.39;100.00;94917.25;5084173;28;20055;-70
2021/06/20 03:58:28;;;;;;;48.50;12.25;;;;;;;14.24;100.00;94903.00;5085189;28;20050;-70
2021/06/20 04:00:54;;;;;;;50.17;12.48;;;;;;;14.29;100.00;94923.97;5084901;28;20676;-70
2021/06/20 04:03:21;;;;;;;153.05;16.27;;;;;;;14.34;100.00;94916.16;5087884;28;20044;-71
2021/06/20 04:05:49;;;;;;;163.32;17.77;;;;;;;14.38;100.00;94926.16;5088032;28;20054;-71
2021/06/20 04:08:15;;;;;;;172.85;19.83;;;;;;;14.40;100.00;94918.81;5088135;28;20040;-70
2021/06/20 04:10:42;;;;;;;315.30;18.88;;;;;;;14.55;100.00;94918.94;5084481;28;20576;-71
2021/06/20 04:13:09;;;;;;;313.83;19.25;;;;;;;14.61;100.00;94920.56;5083919;28;20059;-71
2021/06/20 04:15:36;;;;;;;123.88;13.65;;;;;;;14.74;100.00;94921.16;5085944;28;20170;-71
2021/06/20 04:18:04;;;;;;;105.20;12.98;;;;;;;14.83;100.00;94911.75;5085420;28;20047;-70
2021/06/20 04:20:31;;;;;;;130.65;14.35;;;;;;;14.99;100.00;94916.00;5085214;28;20039;-71
2021/06/20 04:22:58;;;;;;;58.00;11.48;;;;;;;15.03;100.00;94917.06;5085162;28;20051;-71
2021/06/20 04:25:25;;;;;;;23.77;12.55;;;;;;;15.15;100.00;94918.72;5086796;28;20039;-71
2021/06/20 04:27:52;;;;;;;149.88;14.82;;;;;;;14.97;100.00;94912.88;5087974;28;20066;-71
2021/06/20 04:30:21;;;;;;;155.13;14.75;;;;;;;14.76;100.00;94917.22;5087904;28;20032;-70
2021/06/20 04:32:49;;;;;;;52.90;12.63;;;;;;;14.94;100.00;94916.00;5085077;28;20040;-70
2021/06/20 04:35:18;;;;;;;71.75;12.43;;;;;;;14.98;100.00;94909.22;5084948;28;20411;-70
2021/06/20 04:37:46;;;;;;;106.65;13.95;;;;;;;14.85;100.00;94914.91;5083896;28;20044;-71
2021/06/20 04:40:18;;;;;;;54.22;14.73;;;;;;;14.77;100.00;94918.81;5087928;28;20043;-71
2021/06/20 04:42:54;;;;;;;115.80;14.85;;;;;;;14.85;100.00;94915.69;5088005;28;20036;-71
2021/06/20 04:45:21;;;;;;;40.38;14.88;;;;;;;14.92;100.00;94904.97;5088337;28;20382;-71
2021/06/20 04:47:48;;;;;;;21.63;12.77;;;;;;;14.97;100.00;94902.38;5084814;28;20036;-71
2021/06/20 04:50:16;;;;;;;27.65;14.05;;;;;;;15.18;100.00;94918.16;5084631;28;20035;-71
2021/06/20 04:52:43;;;;;;;18.65;13.52;;;;;;;15.24;100.00;94917.16;5084794;28;20032;-71
2021/06/20 04:55:11;;;;;;;20.98;13.52;;;;;;;15.26;100.00;94912.44;5085759;28;20051;-71
2021/06/20 04:57:38;;;;;;;23.17;12.05;;;;;;;15.42;100.00;94924.56;5083930;28;20124;-71
2021/06/20 05:00:08;;;;;;;15.82;11.27;;;;;;;15.45;100.00;94916.16;5085832;28;20370;-71
2021/06/20 05:02:36;;;;;;;12.88;9.65;;;;;;;15.60;100.00;94919.88;5085094;28;20047;-71
2021/06/20 05:05:06;;;;;;;11.27;8.63;;;;;;;15.74;100.00;94926.22;5085430;28;20039;-70
2021/06/20 05:07:33;;;;;;;12.50;8.32;;;;;;;15.89;100.00;94932.56;5082803;28;20044;-71
2021/06/20 05:10:05;;;;;;;15.52;8.30;;;;;;;15.99;100.00;94929.91;5085530;28;20028;-71
2021/06/20 05:12:32;;;;;;;17.67;9.10;;;;;;;16.09;100.00;94927.28;5088180;28;20405;-69
2021/06/20 05:14:59;;;;;;;18.63;8.50;;;;;;;16.28;100.00;94939.91;5087801;28;20066;-70
2021/06/20 05:17:26;;;;;;;9.27;7.63;;;;;;;16.42;100.00;94947.00;5088179;28;20037;-70
2021/06/20 05:19:53;;;;;;;12.02;7.88;;;;;;;16.47;100.00;94946.19;5086833;28;20051;-70
2021/06/20 05:22:20;;;;;;;10.63;7.82;;;;;;;16.53;100.00;94942.53;5089803;28;20044;-70
2021/06/20 05:24:47;;;;;;;13.90;8.23;;;;;;;16.50;100.00;94927.28;5092236;28;20044;-70
2021/06/20 05:27:14;;;;;;;11.68;9.23;;;;;;;16.67;100.00;94936.72;5087712;28;20586;-70
2021/06/20 05:29:41;;;;;;;13.50;8.75;;;;;;;16.78;100.00;94938.25;5091186;28;20035;-70
2021/06/20 05:32:08;;;;;;;15.82;10.43;;;;;;;16.77;100.00;94937.47;5089681;28;20517;-70
2021/06/20 05:34:35;;;;;;;10.07;8.52;;;;;;;16.68;100.00;94927.78;5091267;28;20047;-70
2021/06/20 05:37:02;;;;;;;11.13;9.20;;;;;;;16.77;100.00;94936.69;5087280;28;20047;-70
2021/06/20 05:39:29;;;;;;;16.60;10.45;;;;;;;16.77;100.00;94936.69;5090143;28;20040;-69
2021/06/20 05:41:56;;;;;;;11.55;8.98;;;;;;;16.68;100.00;94922.53;5091160;28;20048;-70
2021/06/20 05:49:56;;;;;;;15.80;8.43;;;;;;;16.68;100.00;94922.53;5119504;27;20566;-71
2021/06/20 05:52:23;;;;;;;11.60;7.50;;;;;;;16.84;100.00;94916.19;5120265;27;20043;-71
2021/06/20 05:54:50;;;;;;;14.50;7.53;;;;;;;17.00;100.00;94930.88;5121495;27;20039;-71
2021/06/20 05:57:18;;;;;;;11.75;7.38;;;;;;;17.16;100.00;94928.16;5125675;27;20043;-71
2021/06/20 05:59:45;;;;;;;14.05;7.07;;;;;;;17.29;100.00;94922.31;5124238;27;20104;-71
2021/06/20 06:02:12;;;;;;;12.70;8.27;;;;;;;17.34;100.00;94919.69;5124766;27;20100;-71
2021/06/20 06:04:41;;;;;;;28.73;10.93;;;;;;;17.49;100.00;94931.19;5123560;27;20048;-71
2021/06/20 06:07:08;;;;;;;12.95;9.00;;;;;;;17.41;100.00;94923.84;5122971;27;20050;-71
2021/06/20 06:09:36;;;;;;;10.82;8.32;;;;;;;17.37;100.00;94924.38;5123435;27;20432;-71
2021/06/20 06:12:03;;;;;;;12.73;8.32;;;;;;;17.28;100.00;94902.31;5123420;27;20043;-71
2021/06/20 06:14:30;;;;;;;13.70;8.77;;;;;;;17.41;100.00;94918.59;5123491;27;20104;-71
2021/06/20 06:16:57;;;;;;;9.95;8.18;;;;;;;17.51;100.00;94914.03;5123593;27;20047;-71
2021/06/20 06:19:24;;;;;;;10.20;8.43;;;;;;;17.57;100.00;94912.16;5124575;27;20027;-72
2021/06/20 06:21:51;;;;;;;12.40;9.05;;;;;;;17.62;100.00;94904.25;5122414;27;20058;-72
2021/06/20 06:24:18;;;;;;;12.07;9.25;;;;;;;17.80;100.00;94909.94;5122014;27;20050;-72
2021/06/20 06:26:45;;;;;;;13.38;9.27;;;;;;;17.90;100.00;94915.16;5125050;27;20534;-72
2021/06/20 06:29:12;;;;;;;12.73;8.70;;;;;;;17.98;99.80;94911.16;5125995;27;20031;-72
2021/06/20 06:31:41;;;;;;;11.80;7.97;;;;;;;18.17;100.00;94908.59;5126357;27;20401;-72
2021/06/20 06:34:09;;;;;;;15.25;7.93;;;;;;;18.31;99.03;94909.53;5124283;27;20040;-72
2021/06/20 06:36:37;;;;;;;10.02;7.80;;;;;;;18.44;98.08;94913.38;5127552;27;20047;-72
2021/06/20 06:39:04;;;;;;;9.73;7.60;;;;;;;18.50;98.87;94907.00;5122926;27;20043;-72
2021/06/20 06:41:32;;;;;;;14.90;8.10;;;;;;;18.56;99.35;94899.81;5121550;27;20040;-72
2021/06/20 06:43:59;;;;;;;11.20;7.53;;;;;;;18.58;96.71;94902.97;5123026;27;20043;-72
2021/06/20 06:46:26;;;;;;;10.38;7.13;;;;;;;18.71;95.89;94902.31;5124662;27;20432;-72
2021/06/20 06:48:53;;;;;;;14.77;7.13;;;;;;;18.80;96.70;94900.63;5122983;27;20043;-72
2021/06/20 06:51:20;;;;;;;15.85;6.32;;;;;;;18.66;97.63;94882.03;5122155;27;20050;-72
2021/06/20 06:53:47;;;;;;;9.77;6.63;;;;;;;18.79;96.58;94904.31;5122601;27;20127;-72
2021/06/20 06:56:14;;;;;;;9.15;4.72;;;;;;;18.96;91.77;94897.84;5122589;27;20531;-72
2021/06/20 06:58:41;;;;;;;6.13;4.55;;;;;;;19.23;90.47;94903.34;5125445;27;20053;-72
2021/06/20 07:01:08;;;;;;;7.75;4.30;;;;;;;19.31;89.54;94904.53;5109793;27;20035;-72
2021/06/20 07:03:35;;;;;;;11.40;4.32;;;;;;;19.43;88.19;94906.78;5107674;28;20047;-72
2021/06/20 07:06:02;;;;;;;10.85;4.93;;;;;;;19.56;88.26;94906.06;5108856;28;20115;-72
2021/06/20 07:08:28;;;;;;;8.02;5.28;;;;;;;19.79;87.78;94903.66;5114222;27;20048;-72
2021/06/20 07:10:55;;;;;;;7.57;3.55;;;;;;;19.95;84.22;94905.00;5106999;28;20540;-72
2021/06/20 07:13:22;;;;;;;7.75;3.75;;;;;;;20.05;82.58;94896.91;5111783;27;20135;-72
2021/06/20 07:15:49;;;;;;;4.28;2.97;;;;;;;20.14;80.57;94909.47;5114642;27;20051;-72
2021/06/20 07:18:16;;;;;;;4.78;2.45;;;;;;;20.10;77.77;94908.47;5109400;28;20044;-72
2021/06/20 07:20:43;;;;;;;3.38;2.55;;;;;;;20.13;77.91;94902.59;5111776;27;20047;-72
2021/06/20 07:23:10;;;;;;;6.88;2.17;;;;;;;20.17;78.35;94903.59;5112079;27;20051;-73
2021/06/20 07:25:37;;;;;;;4.30;2.03;;;;;;;20.23;77.71;94902.44;5110380;27;20405;-73
2021/06/20 07:28:05;;;;;;;4.38;2.17;;;;;;;20.25;78.27;94893.13;5108405;28;20046;-70
2021/06/20 07:30:32;;;;;;;1.52;1.40;;;;;;;20.53;75.78;94900.34;5108396;28;20086;-72
2021/06/20 07:32:59;;;;;;;2.58;1.88;;;;;;;20.72;77.69;94893.13;5108484;28;22040;-72
2021/06/20 07:35:26;;;;;;;4.38;1.63;;;;;;;20.93;73.21;94887.47;5108886;27;20395;-73
2021/06/20 07:37:53;;;;;;;3.17;1.77;;;;;;;20.99;73.30;94871.19;5112798;27;20054;-73
2021/06/20 07:40:20;;;;;;;6.35;2.20;;;;;;;21.28;75.36;94887.81;5108469;28;20066;-73
2021/06/20 07:42:47;;;;;;;7.75;2.15;;;;;;;21.42;72.10;94885.16;5110785;27;20062;-73
2021/06/20 07:45:15;;;;;;;2.35;1.50;;;;;;;21.66;69.04;94887.56;5108282;27;20031;-72
2021/06/20 07:47:43;;;;;;;1.60;1.50;;;;;;;21.57;71.12;94877.69;5106328;27;20063;-72
2021/06/20 07:50:12;;;;;;;2.50;1.80;;;;;;;21.30;71.76;94875.06;5105143;28;20042;-73
2021/06/20 07:52:40;;;;;;;4.43;1.85;;;;;;;21.52;69.66;94872.50;5105767;27;20051;-71
2021/06/20 07:55:08;;;;;;;6.22;3.08;;;;;;;21.66;69.14;94866.34;5108015;27;20044;-72
2021/06/20 07:57:35;;;;;;;2.55;1.77;;;;;;;21.90;68.34;94872.16;5106124;28;20043;-73
2021/06/20 08:00:05;;;;;;;4.53;1.33;;;;;;;22.08;64.54;94877.59;5107580;27;20526;-72
2021/06/20 08:02:38;;;;;;;1.80;1.40;;;;;;;22.20;63.65;94869.88;5107841;28;20520;-72
2021/06/20 08:05:06;;;;;;;1.85;1.15;;;;;;;22.26;62.39;94879.28;5107154;28;20493;-72
2021/06/20 08:07:33;;;;;;;2.85;1.10;;;;;;;22.21;63.13;94876.72;5107683;28;20417;-73
2021/06/20 08:10:00;;;;;;;3.00;1.00;;;;;;;22.38;61.80;94880.59;5107385;28;20032;-73
2021/06/20 08:12:28;;;;;;;3.97;1.85;;;;;;;22.51;60.88;94882.38;5105951;28;20036;-74
2021/06/20 08:14:56;;;;;;;2.30;1.00;;;;;;;22.67;62.50;94882.75;5107384;27;20459;-73
2021/06/20 08:17:24;;;;;;;3.95;1.50;;;;;;;22.81;61.64;94890.63;5107881;27;20043;-74
2021/06/20 08:19:51;;;;;;;0.98;0.82;;;;;;;23.11;59.69;94896.22;5106397;28;20096;-71
2021/06/20 08:22:19;;;;;;;4.25;0.90;;;;;;;23.27;57.83;94894.69;5106804;28;20043;-71
2021/06/20 08:24:47;;;;;;;2.40;1.00;;;;;;;23.43;57.21;94897.69;5107695;27;20045;-71
2021/06/20 08:27:14;;;;;;;1.23;0.85;;;;;;;23.62;59.00;94905.34;5106673;28;20040;-70
2021/06/20 08:29:44;;;;;;;1.92;1.30;;;;;;;23.65;55.93;94894.88;5106725;28;20035;-71
2021/06/20 08:32:12;;;;;;;7.22;2.75;;;;;;;23.63;54.95;94912.25;5106034;28;20047;-71
2021/06/20 08:34:39;;;;;;;1.00;0.80;;;;;;;23.58;52.03;94904.44;5103085;27;20445;-71
2021/06/20 08:37:06;;;;;;;1.40;0.68;;;;;;;23.53;52.87;94902.69;5104334;27;20461;-71
2021/06/20 08:39:32;;;;;;;2.40;0.80;;;;;;;23.57;51.75;94898.34;5105428;27;20023;-71
2021/06/20 08:41:59;;;;;;;0.88;0.77;;;;;;;23.75;54.66;94899.13;5103146;27;20043;-71
2021/06/20 08:44:28;;;;;;;1.45;0.77;;;;;;;23.75;56.69;94899.13;5104118;27;20043;-71
2021/06/20 08:46:57;;;;;;;2.83;1.40;;;;;;;23.79;56.55;94894.75;5106909;27;20039;-72
2021/06/20 08:49:26;;;;;;;5.90;1.10;;;;;;;23.72;58.34;94889.09;5102272;28;20046;-71
2021/06/20 08:51:55;;;;;;;1.50;1.08;;;;;;;24.16;54.75;94881.88;5103820;28;20035;-71
2021/06/20 08:54:22;;;;;;;1.17;0.80;;;;;;;24.49;53.58;94891.22;5103902;28;20035;-70
2021/06/20 08:56:50;;;;;;;2.15;1.33;;;;;;;;;;5104311;27;20062;-70
2021/06/20 08:59:19;;;;;;;1.90;0.98;;;;;;;24.84;53.45;94889.25;5104841;27;20036;-71
2021/06/20 09:01:47;;;;;;;1.98;0.82;;;;;;;24.93;53.27;94889.97;5105844;27;20059;-70
2021/06/20 09:04:29;;;;;;;3.35;0.98;;;;;;;24.89;53.05;94865.09;5105490;27;20054;-73
2021/06/20 09:06:58;;;;;;;1.00;0.80;;;;;;;25.03;53.06;94874.72;5105188;27;20059;-72
2021/06/20 09:09:33;;;;;;;2.13;1.27;;;;;;;24.82;56.41;94875.47;5104914;28;20044;-72
2021/06/20 09:12:12;;;;;;;2.70;1.20;;;;;;;24.97;54.71;94872.28;5105375;28;20416;-72
2021/06/20 09:14:43;;;;;;;1.20;0.90;;;;;;;25.13;52.51;94874.38;5105471;27;20043;-72
2021/06/20 09:17:11;;;;;;;2.20;1.08;;;;;;;24.85;53.19;94874.84;5105438;28;20055;-72
2021/06/20 09:19:38;;;;;;;1.85;1.00;;;;;;;24.86;56.05;94881.72;5106675;27;20111;-73
2021/06/20 09:22:09;;;;;;;1.55;0.90;;;;;;;25.31;53.68;94875.84;5105080;27;20040;-73
2021/06/20 09:24:38;;;;;;;3.17;0.95;;;;;;;25.47;52.63;94875.28;5105734;27;20050;-73
2021/06/20 09:27:06;;;;;;;2.35;0.90;;;;;;;25.65;51.22;94868.72;5103207;27;20058;-73
2021/06/20 09:29:36;;;;;;;2.78;0.88;;;;;;;25.88;50.56;94865.72;5102391;27;20032;-74
2021/06/20 09:32:08;;;;;;;1.73;0.82;;;;;;;26.14;50.39;94865.50;5105970;27;20052;-73
2021/06/20 09:34:45;;;;;;;1.00;0.90;;;;;;;26.47;50.88;94865.47;5106627;27;20039;-73
2021/06/20 09:37:12;;;;;;;2.13;0.63;;;;;;;26.80;46.55;94861.97;5105287;28;20067;-73
2021/06/20 09:39:40;;;;;;;12.32;1.23;;;;;;;27.07;49.08;94867.75;5109884;28;20043;-73
2021/06/20 09:42:10;;;;;;;1.55;0.70;;;;;;;27.07;47.45;94865.09;5105836;27;20036;-73
2021/06/20 09:44:44;;;;;;;4.28;0.68;;;;;;;27.25;47.57;94866.41;5105249;27;20431;-73
2021/06/20 09:47:13;;;;;;;1.48;0.63;;;;;;;27.30;46.75;94861.97;5104827;27;20063;-74
2021/06/20 09:49:46;;;;;;;1.63;0.63;;;;;;;27.61;44.83;94862.13;5105250;28;20071;-73
2021/06/20 09:52:15;;;;;;;1.17;0.70;;;;;;;27.92;46.69;94855.34;5102132;27;20052;-73
2021/06/20 09:54:56;;;;;;;0.80;0.57;;;;;;;28.06;45.25;94838.91;5103018;28;20444;-73
2021/06/20 09:57:24;;;;;;;1.30;0.98;;;;;;;28.02;44.38;94841.47;5108022;28;20036;-74
2021/06/20 10:00:01;;;;;;;2.38;1.13;;;;;;;27.05;46.00;94845.94;5104114;28;20036;-73
2021/06/20 10:02:41;;;;;;;3.20;1.42;;;;;;;26.34;47.58;94831.84;5107419;28;20517;-73
2021/06/20 10:05:09;;;;;;;4.47;2.63;;;;;;;25.98;47.87;94849.31;5107549;27;20531;-73
2021/06/20 10:07:37;;;;;;;2.70;1.33;;;;;;;25.84;48.96;94848.78;5105650;28;20096;-72
2021/06/20 10:10:07;;;;;;;2.40;1.30;;;;;;;25.49;53.98;94849.09;5104500;28;20039;-73
2021/06/20 10:12:35;;;;;;;6.90;4.32;;;;;;;25.33;55.91;94846.97;5105227;28;20038;-73
2021/06/20 10:15:10;;;;;;;2.60;1.20;;;;;;;25.02;55.11;94841.22;5105453;28;20048;-72
2021/06/20 10:18:00;;;;;;;1.40;0.90;;;;;;;24.81;54.94;94857.91;5109437;27;20035;-72
2021/06/20 10:20:34;;;;;;;3.53;1.23;;;;;;;24.64;57.42;94852.69;5106960;28;20575;-73
2021/06/20 10:23:02;;;;;;;3.55;1.20;;;;;;;25.03;55.59;94842.75;5104994;28;20276;-73
2021/06/20 10:25:39;;;;;;;5.35;1.00;;;;;;;25.43;56.48;94840.50;5105290;28;20062;-75
2021/06/20 10:28:12;;;;;;;2.15;0.82;;;;;;;25.81;55.44;94836.13;5106447;28;20046;-74
2021/06/20 10:30:41;;;;;;;2.97;0.90;;;;;;;26.27;53.29;94828.94;5104063;28;20031;-74
2021/06/20 10:33:14;;;;;;;1.90;1.05;;;;;;;26.68;51.62;94838.69;5104187;28;20050;-74
2021/06/20 10:35:44;;;;;;;1.40;1.00;;;;;;;27.09;51.36;94825.44;5106800;28;20039;-75
2021/06/20 10:38:52;;;;;;;1.48;0.88;;;;;;;27.50;46.91;94836.97;5108814;28;20412;-74
2021/06/20 10:41:26;;;;;;;1.60;0.85;;;;;;;27.74;48.45;94827.31;5108408;27;20042;-75
2021/06/20 10:43:57;;;;;;;3.55;0.95;;;;;;;28.31;47.59;94823.47;5108815;28;20504;-74
2021/06/20 10:46:25;;;;;;;3.95;1.00;;;;;;;28.70;45.38;94823.69;5109401;28;20070;-75
2021/06/20 10:48:52;;;;;;;2.65;0.88;;;;;;;28.35;45.07;94786.06;5100845;27;20089;-76
2021/06/20 10:51:23;;;;;;;3.55;1.10;;;;;;;28.25;45.40;94808.00;5108529;27;20055;-74
2021/06/20 10:53:50;;;;;;;1.05;0.82;;;;;;;28.15;46.29;94815.44;5109772;27;20386;-74
2021/06/20 10:56:23;;;;;;;1.15;0.82;;;;;;;28.22;45.83;94815.59;5112465;27;20134;-74
2021/06/20 10:58:51;;;;;;;3.45;0.80;;;;;;;28.28;49.72;94810.78;5112875;27;20051;-73
2021/06/20 11:01:20;;;;;;;1.92;1.10;;;;;;;28.20;47.49;94807.16;5110561;27;20400;-74
2021/06/20 11:04:07;;;;;;;1.08;0.80;;;;;;;28.16;49.13;94808.16;5110309;27;20047;-73
2021/06/20 11:06:34;;;;;;;2.28;0.98;;;;;;;28.33;46.60;94810.53;5108009;28;20051;-73
2021/06/20 11:09:06;;;;;;;1.88;1.02;;;;;;;29.03;45.97;94806.44;5109344;27;20466;-73
2021/06/20 11:11:36;;;;;;;2.38;1.30;;;;;;;29.61;43.63;94799.59;5112184;27;20036;-73
2021/06/20 11:14:08;;;;;;;3.40;1.35;;;;;;;30.07;43.63;94800.50;5108766;28;20058;-73
2021/06/20 11:16:47;;;;;;;1.43;1.13;;;;;;;30.77;43.34;94792.44;5112087;27;20440;-73
2021/06/20 11:19:16;;;;;;;2.10;0.90;;;;;;;30.73;40.04;94797.75;5111439;27;20045;-73
2021/06/20 11:21:53;;;;;;;0.90;0.80;;;;;;;30.37;41.38;94791.06;5108963;28;20051;-73
2021/06/20 11:24:22;;;;;;;0.95;0.80;;;;;;;30.90;39.64;94791.09;5107821;28;20043;-73
2021/06/20 11:26:58;;;;;;;2.15;0.80;;;;;;;31.03;40.01;94789.00;5108600;28;20050;-73
2021/06/20 11:29:35;;;;;;;1.40;0.80;;;;;;;30.47;41.61;94787.78;5108515;27;20035;-72
2021/06/20 11:32:02;;;;;;;1.42;0.80;;;;;;;29.64;42.84;94772.03;5106534;28;20031;-73
2021/06/20 11:34:29;;;;;;;6.95;0.93;;;;;;;29.51;42.51;94779.47;5108118;28;20040;-74
2021/06/20 11:36:57;;;;;;;2.42;0.80;;;;;;;29.20;45.05;94775.03;5107780;28;20043;-73